x

Destruction Island, Wa (desw1) Weather Station

10:00pm - Thu 22nd Jun 2017 All times are PDT. -7 hours from GMT.

  • Wind
    26mph, 28mph gusts
  • Air Temp 55°f
  • Sea Pressure 1024.1mb
  • Destruction Island, Wa
  • Destruction Island, Wa

More Historic Weather Station data

Upgrade to MSW Pro to gain access to the past 30 days of data for over 8000 Wavebouys and Weather Stations around the globe.

Join Pro

Comparision Forecast

View Surf forecast
   
Thu 06/22 10:00pm 26 28 mph 1024.1mb 55f
9:00pm 25 26 mph 1024.2mb 55f
8:00pm 29 31 mph 1024.2mb 56f
7:00pm 28 30 mph 1024.3mb 56f
6:00pm 25 29 mph 1024.4mb 57f
5:00pm 25 28 mph 1024.6mb 56f
4:00pm 22 24 mph 1025.2mb 57f
3:00pm 16 17 mph 1025.7mb 55f
2:00pm 15 18 mph 1026.3mb 57f
1:00pm 11 14 mph 1026.6mb 58f
12:00pm 3 5 mph 1026.6mb 56f
11:00am 3 5 mph 1026.9mb 55f
10:00am  -  0 mph 1027mb 55f
9:00am  -  0 mph 1026.9mb 54f
8:00am 2 3 mph 1027mb 53f
7:00am 3 5 mph 1026.7mb 51f
6:00am 3 5 mph 1026.4mb 50f
5:00am 2 2 mph 1026.3mb 51f
4:00am 3 3 mph 1026.5mb 51f
3:00am 6 7 mph 1026.3mb 52f
2:00am 11 11 mph 1026.6mb 53f
1:00am 8 9 mph 1026.9mb 54f
12:00am 8 10 mph 1026.8mb 54f
Wed 06/21 11:00pm 11 13 mph 1026.9mb 54f
10:00pm 17 18 mph 1026.9mb 55f
9:00pm 20 22 mph 1026.5mb 55f
8:00pm 21 22 mph 1026.6mb 55f
7:00pm 25 28 mph 1026.8mb 56f
6:00pm 24 26 mph 1026.9mb 56f
5:00pm 25 26 mph 1027.4mb 56f
4:00pm 26 28 mph 1027.5mb 56f
3:00pm 24 26 mph 1027.6mb 56f
2:00pm 24 25 mph 1027.8mb 56f
1:00pm 20 22 mph 1028mb 56f
12:00pm 23 24 mph 1028.1mb 56f
11:00am 22 24 mph 1028.1mb 55f
10:00am 21 23 mph 1028.1mb 55f
9:00am 20 23 mph 1027.6mb 55f
8:00am 18 21 mph 1027mb 55f
7:00am 20 23 mph 1027mb 54f
6:00am 11 14 mph 1026.7mb 53f
5:00am 11 13 mph 1026.6mb 53f
4:00am 15 18 mph 1026.5mb 53f
3:00am 14 16 mph 1026.2mb 54f
2:00am 13 16 mph 1026mb 54f
1:00am 13 14 mph 1026mb 54f
12:00am 17 18 mph 1026.2mb 55f
Tue 06/20 11:00pm 20 21 mph 1025.9mb 55f
10:00pm 24 26 mph 1025.8mb 55f
9:00pm 23 25 mph 1025.3mb 55f
8:00pm 24 26 mph 1025.2mb 56f
7:00pm 26 29 mph 1024.9mb 56f
6:00pm 24 25 mph 1024.8mb 56f
5:00pm 23 24 mph 1025mb 56f
4:00pm 21 24 mph 1024.8mb 56f
3:00pm 22 23 mph 1024.5mb 55f
2:00pm 23 24 mph 1024.1mb 56f
1:00pm 22 24 mph 1023.5mb 56f
12:00pm 23 25 mph 1022.8mb 55f
11:00am 26 29 mph 1022mb 55f
10:00am 25 28 mph 1021.2mb 55f
9:00am 28 30 mph 1020.5mb 55f
8:00am 13 15 mph 1020mb 57f
7:00am 10 10 mph 1019.3mb 57f
6:00am 7 8 mph 1018.7mb 57f
5:00am 3 5 mph 1018.3mb 57f
4:00am  -  1 mph 1018.2mb 57f
3:00am 3 3 mph 1018.2mb 57f
2:00am 5 6 mph 1018.1mb 56f
1:00am 3 6 mph 1017.8mb 57f
12:00am 8 9 mph 1017.9mb 58f
Mon 06/19 11:00pm 9 9 mph 1017.7mb 58f
10:00pm 9 10 mph 1017.3mb 58f
9:00pm 5 6 mph 1016.7mb 58f
8:00pm 3 6 mph 1017.2mb 59f
7:00pm 5 6 mph 1016.7mb 60f
6:00pm 13 14 mph 1016.9mb 59f
5:00pm 14 15 mph 1017.1mb 59f
4:00pm 7 8 mph 1016.9mb 60f
3:00pm 15 17 mph 1017.2mb 60f
2:00pm 16 18 mph 1016.9mb 60f
1:00pm 8 8 mph 1016.5mb 60f
12:00pm 10 11 mph 1017mb 60f
11:00am 10 11 mph 1017.2mb 59f
10:00am 6 7 mph 1017.5mb 58f
9:00am 7 8 mph 1017.6mb 58f
8:00am 5 6 mph 1017.1mb 57f
7:00am 5 6 mph 1016.9mb 57f